Monday, May 2, 2016, 1:53 AM EDT

KFYJ, West Point, Middle Peninsula Regional Airport

Location: Shacklefords, VA, United States Lat: 37.521
Local Time: 1:53 AM EDT ( 5:53 GMT) Lon: -76.764
Time Zone: US/Eastern Elev: 22 ft

Show me the last for .
Show Decoded

2016-05-02 01:35 METAR KFYJ 020535Z AUTO 00000KT 4SM SCT023 BKN100 BKN120 16/16 A2999 RMK AO2
                 T01600157 =
2016-05-02 01:15 METAR KFYJ 020515Z AUTO 00000KT 5SM SCT023 BKN028 16/16 A3000 RMK AO2 T01620159
                 =
2016-05-02 00:55 METAR KFYJ 020455Z AUTO 00000KT 5SM SCT023 SCT031 16/16 A3001 RMK AO2 T01630160
                 =
2016-05-02 00:35 METAR KFYJ 020435Z AUTO 00000KT 7SM SCT023 SCT032 BKN055 16/16 A3001 RMK AO2
                 T01640161 =
2016-05-02 00:15 METAR KFYJ 020415Z AUTO 00000KT 7SM SCT003 SCT023 BKN055 17/16 A3001 RMK AO2
                 T01650160 =
2016-05-01 23:55 METAR KFYJ 020355Z AUTO 36003KT 5SM SCT003 SCT055 16/16 A3001 RMK AO2 T01630160
                 =
2016-05-01 23:35 METAR KFYJ 020335Z AUTO 00000KT 4SM CLR 16/16 A3001 RMK AO2 T01640160 =
2016-05-01 23:15 METAR KFYJ 020315Z AUTO 00000KT 5SM SCT050 17/16 A3002 RMK AO2 T01660161 =
2016-05-01 22:55 METAR KFYJ 020255Z AUTO 00000KT 7SM SCT003 SCT026 BKN050 17/17 A3003 RMK AO2
                 T01710165 =
2016-05-01 22:35 METAR KFYJ 020235Z AUTO 00000KT 10SM SCT003 BKN026 OVC046 18/17 A3004 RMK AO2
                 T01770171 =
2016-05-01 22:15 METAR KFYJ 020215Z AUTO 00000KT 10SM SCT024 SCT030 OVC048 18/17 A3004 RMK AO2
                 T01780172 =
2016-05-01 21:55 METAR KFYJ 020155Z AUTO 00000KT 7SM SCT003 SCT024 OVC044 18/17 A3003 RMK AO2
                 T01800173 =
2016-05-01 21:35 METAR KFYJ 020135Z AUTO 09004KT 10SM BKN005 BKN024 OVC046 18/18 A3003 RMK AO2
                 T01820175 =
2016-05-01 21:15 METAR KFYJ 020115Z AUTO 03003KT 7SM OVC005 19/18 A3003 RMK AO2 T01850180 =
2016-05-01 20:55 METAR KFYJ 020055Z AUTO 08003KT 7SM BKN005 BKN035 OVC044 19/18 A3002 RMK AO2
                 T01870180 =
2016-05-01 20:35 METAR KFYJ 020035Z AUTO 00000KT 7SM SCT033 OVC042 19/18 A3002 RMK AO2 T01880180
                 =
2016-05-01 20:15 METAR KFYJ 020015Z AUTO 00000KT 10SM SCT031 OVC044 19/18 A3000 RMK AO2 T01920183
                 =
2016-05-01 19:55 METAR KFYJ 012355Z AUTO 00000KT 10SM SCT032 OVC044 19/18 A3000 RMK AO2 T01930182
                 10203 20156 =
2016-05-01 19:35 METAR KFYJ 012335Z AUTO 00000KT 10SM BKN032 OVC044 20/18 A2999 RMK AO2 T01960182
                 =
2016-05-01 19:15 METAR KFYJ 012315Z AUTO 06003KT 10SM SCT032 OVC042 20/19 A2998 RMK AO2 T02000185
                 =
2016-05-01 18:55 METAR KFYJ 012255Z AUTO 08003KT 10SM SCT031 OVC042 20/19 A2998 RMK AO2 T02020185
                 =
2016-05-01 18:35 METAR KFYJ 012235Z AUTO 00000KT 10SM SCT032 OVC039 20/18 A2999 RMK AO2 T02010181
                 =
2016-05-01 18:15 METAR KFYJ 012215Z AUTO 00000KT 10SM OVC037 20/18 A3000 RMK AO2 T02000180 =
2016-05-01 17:55 METAR KFYJ 012155Z AUTO 15003KT 10SM OVC037 20/18 A3001 RMK AO2 T02000177 =
2016-05-01 17:35 METAR KFYJ 012135Z AUTO 16003KT 10SM SCT023 SCT028 OVC037 20/18 A3001 RMK AO2
                 T02000177 =
2016-05-01 17:15 METAR KFYJ 012115Z AUTO 15003KT 10SM SCT012 BKN025 OVC037 20/18 A3001 RMK AO2
                 T01950175 =
2016-05-01 16:55 METAR KFYJ 012055Z AUTO 15004KT 10SM SCT016 BKN022 OVC035 20/18 A3002 RMK AO2
                 T01960175 =
2016-05-01 16:35 METAR KFYJ 012035Z AUTO 00000KT 10SM SCT011 OVC019 19/17 A3002 RMK AO2 T01900170
                 =
2016-05-01 16:15 METAR KFYJ 012015Z AUTO 16003KT 10SM BKN012 OVC019 19/17 A3003 RMK AO2 T01860168
                 =
2016-05-01 15:55 METAR KFYJ 011955Z AUTO 00000KT 10SM BKN015 BKN028 OVC035 18/17 A3003 RMK AO2
                 T01820165 =
2016-05-01 15:35 METAR KFYJ 011935Z AUTO 00000KT 10SM SCT008 BKN017 OVC033 17/16 A3004 RMK AO2
                 T01720160 =
2016-05-01 15:15 METAR KFYJ 011915Z AUTO 00000KT 10SM BKN008 OVC013 17/16 A3005 RMK AO2 T01680157
                 =
2016-05-01 14:55 METAR KFYJ 011855Z AUTO 13004KT 10SM OVC010 17/16 A3005 RMK AO2 T01650155 =
2016-05-01 14:35 METAR KFYJ 011835Z AUTO 14006KT 10SM OVC010 16/15 A3006 RMK AO2 T01620152 =
2016-05-01 14:15 METAR KFYJ 011815Z AUTO 12006KT 10SM BKN008 OVC015 16/15 A3007 RMK AO2 T01580148
                 =
2016-05-01 13:55 METAR KFYJ 011755Z AUTO 14005KT 10SM BKN008 OVC013 16/15 A3009 RMK AO2 P0001
                 60016 T01560146 10157 20121 =
2016-05-01 13:35 METAR KFYJ 011735Z AUTO 15004KT 10SM BKN008 OVC013 16/15 A3010 RMK AO2 P0001
                 T01560146 =
2016-05-01 13:15 METAR KFYJ 011715Z AUTO 14003KT 7SM OVC010 15/14 A3010 RMK AO2 P0001 T01510142 =
2016-05-01 12:55 METAR KFYJ 011655Z AUTO 17004KT 7SM BKN010 BKN016 OVC025 15/14 A3012 RMK AO2
                 P0014 T01470135 =
2016-05-01 12:35 METAR KFYJ 011635Z AUTO 16003G08KT 1SM BKN010 OVC014 15/13 A3012 RMK AO2 P0013
                 T01460130 =
2016-05-01 12:15 METAR KFYJ 011615Z AUTO 17004KT 10SM OVC016 15/13 A3012 RMK AO2 T01510125 =
2016-05-01 11:55 METAR KFYJ 011555Z AUTO 14010G14KT 10SM OVC016 15/13 A3010 RMK AO2 T01510126 =
2016-05-01 11:35 METAR KFYJ 011535Z AUTO 14009KT 10SM OVC016 15/13 A3010 RMK AO2 T01500126 =
2016-05-01 11:15 METAR KFYJ 011515Z AUTO 14008KT 10SM OVC016 15/13 A3011 RMK AO2 T01450126 =
2016-05-01 10:55 METAR KFYJ 011455Z AUTO 14007KT 10SM OVC016 14/13 A3011 RMK AO2 P0001 60001
                 T01420126 =
2016-05-01 10:35 METAR KFYJ 011435Z AUTO 13007KT 10SM OVC016 14/13 A3011 RMK AO2 P0001 T01410129
                 =
2016-05-01 10:15 METAR KFYJ 011415Z AUTO 11005KT 10SM OVC016 14/13 A3012 RMK AO2 T01380125 =
2016-05-01 09:55 METAR KFYJ 011355Z AUTO 13005KT 10SM OVC018 14/12 A3013 RMK AO2 T01360123 =
2016-05-01 09:35 METAR KFYJ 011335Z AUTO 11006KT 10SM BKN018 BKN036 OVC110 14/12 A3013 RMK AO2
                 T01350124 =
2016-05-01 09:15 METAR KFYJ 011315Z AUTO 12004KT 10SM SCT022 SCT036 BKN110 13/12 A3014 RMK AO2
                 T01320123 =
2016-05-01 08:55 METAR KFYJ 011255Z AUTO 10005KT 10SM SCT022 BKN028 OVC120 13/12 A3013 RMK AO2
                 T01300121 =
2016-05-01 08:35 METAR KFYJ 011235Z AUTO 11003KT 10SM BKN026 BKN035 OVC065 13/12 A3014 RMK AO2
                 T01260120 =
2016-05-01 08:15 METAR KFYJ 011215Z AUTO 10004KT 10SM OVC024 12/12 A3014 RMK AO2 T01240118 =
2016-05-01 07:55 METAR KFYJ 011155Z AUTO 11005KT 10SM OVC026 12/12 A3014 RMK AO2 60025 70025
                 T01210116 10121 20115 =
2016-05-01 07:35 METAR KFYJ 011135Z AUTO 11004KT 10SM OVC028 12/12 A3015 RMK AO2 T01200115 =
2016-05-01 07:15 METAR KFYJ 011115Z AUTO 09004KT 5SM SCT016 BKN031 OVC060 12/11 A3015 RMK AO2
                 T01180113 =
2016-05-01 06:55 METAR KFYJ 011055Z AUTO 09003KT 10SM OVC035 12/11 A3015 RMK AO2 P0002 T01170112
                 =
2016-05-01 06:35 METAR KFYJ 011035Z AUTO 09003KT 7SM BKN035 BKN042 OVC060 12/11 A3015 RMK AO2
                 P0002 T01160111 =
2016-05-01 06:15 METAR KFYJ 011015Z AUTO 08006KT 7SM BKN035 BKN042 OVC060 12/11 A3014 RMK AO2
                 P0001 T01160111 =
2016-05-01 05:55 METAR KFYJ 010955Z AUTO 07005KT 3SM SCT013 BKN033 OVC055 12/11 A3015 RMK AO2
                 P0022 T01150110 =
2016-05-01 05:35 METAR KFYJ 010935Z AUTO 09005G08KT 4SM BKN013 BKN030 OVC050 12/11 A3016 RMK AO2
                 P0006 T01190111 =
2016-05-01 05:15 METAR KFYJ 010915Z AUTO 29004KT 10SM BKN015 OVC036 12/11 A3019 RMK AO2 T01170110
                 =
2016-05-01 04:55 METAR KFYJ 010855Z AUTO 00000KT 7SM SCT017 OVC038 12/11 A3017 RMK AO2 P0001
                 60001 T01170107 =
2016-05-01 04:35 METAR KFYJ 010835Z AUTO 00000KT 10SM OVC038 12/11 A3017 RMK AO2 T01200106 =
2016-05-01 04:15 METAR KFYJ 010815Z AUTO 00000KT 10SM OVC038 12/11 A3016 RMK AO2 T01180105 =
2016-05-01 03:55 METAR KFYJ 010755Z AUTO 07003KT 10SM OVC034 12/11 A3016 RMK AO2 T01190105 =
2016-05-01 03:35 METAR KFYJ 010735Z AUTO 06003KT 10SM OVC034 12/11 A3016 RMK AO2 T01180105 =
2016-05-01 03:15 METAR KFYJ 010715Z AUTO 06003KT 10SM OVC034 12/11 A3016 RMK AO2 T01180105 =
2016-05-01 02:55 METAR KFYJ 010655Z AUTO 00000KT 10SM OVC036 12/11 A3017 RMK AO2 T01200105 =
2016-05-01 02:35 METAR KFYJ 010635Z AUTO 00000KT 10SM OVC034 12/11 A3017 RMK AO2 T01200105 =
2016-05-01 02:15 METAR KFYJ 010615Z AUTO 00000KT 10SM OVC034 12/10 A3017 RMK AO2 T01200103 =
2016-05-01 01:55 METAR KFYJ 010555Z AUTO 10004KT 10SM OVC038 12/10 A3016 RMK AO2 T01180103 10132
                 20115 401490112 =

Support USWX by starting your Amazon purchase here.